Time;durP1;ratioP1;P1;durP2;ratioP2;P2;SDS_P1;SDS_P2;PMS_P1;PMS_P2;Temp;Humidity;BMP_temperature;BMP_pressure;BME280_temperature;BME280_humidity;BME280_pressure;Samples;Min_cycle;Max_cycle;Signal;HPM_P1;HPM_P2
2022/01/29 00:00:18;;;;;;;2.70;2.50;;;21.40;43.40;;;;;;5018005;28;20265;-69
2022/01/29 00:02:43;;;;;;;2.95;2.60;;;21.40;43.40;;;;;;5035774;28;20189;-68
2022/01/29 00:05:11;;;;;;;2.50;2.30;;;21.40;43.30;;;;;;4981837;28;20192;-68
2022/01/29 00:07:42;;;;;;;2.75;2.50;;;21.40;43.30;;;;;;4998138;28;20238;-69
2022/01/29 00:10:13;;;;;;;2.50;2.30;;;21.40;43.30;;;;;;4998068;28;20291;-68
2022/01/29 00:12:40;;;;;;;2.60;2.40;;;21.40;43.40;;;;;;5030774;28;20261;-69
2022/01/29 00:15:07;;;;;;;2.47;2.20;;;21.40;43.30;;;;;;5037613;28;20610;-68
2022/01/29 00:17:33;;;;;;;2.70;2.50;;;21.50;43.40;;;;;;5037384;28;20206;-68
2022/01/29 00:19:59;;;;;;;2.33;2.15;;;21.40;43.30;;;;;;5055019;28;20652;-69
2022/01/29 00:22:26;;;;;;;2.53;2.33;;;21.40;43.30;;;;;;5020457;28;20174;-69
2022/01/29 00:24:52;;;;;;;2.70;2.50;;;21.40;43.30;;;;;;5037090;28;20252;-69
2022/01/29 00:27:20;;;;;;;2.42;2.20;;;21.40;43.30;;;;;;5037437;28;20298;-69
2022/01/29 00:29:45;;;;;;;2.75;2.55;;;21.40;43.30;;;;;;5031161;28;20195;-69
2022/01/29 00:32:12;;;;;;;2.80;2.60;;;21.40;43.40;;;;;;5017371;28;20187;-68
2022/01/29 00:34:40;;;;;;;2.97;2.60;;;21.40;43.30;;;;;;5034838;28;20187;-69
2022/01/29 00:37:07;;;;;;;2.72;2.40;;;21.40;43.30;;;;;;5042343;28;20252;-67
2022/01/29 00:39:33;;;;;;;2.50;2.30;;;21.40;43.30;;;;;;5037182;28;20190;-69
2022/01/29 00:41:59;;;;;;;3.05;2.75;;;21.40;43.20;;;;;;5020522;28;20217;-69
2022/01/29 00:44:25;;;;;;;2.80;2.60;;;21.40;43.30;;;;;;5018829;28;20190;-69
2022/01/29 00:46:51;;;;;;;2.90;2.70;;;21.40;43.20;;;;;;5016044;28;20210;-69
2022/01/29 00:49:17;;;;;;;3.30;2.50;;;21.40;43.30;;;;;;5016684;28;20190;-69
2022/01/29 00:51:43;;;;;;;2.97;2.70;;;21.40;43.30;;;;;;5000989;28;20183;-69
2022/01/29 00:54:09;;;;;;;2.60;2.40;;;21.40;43.30;;;;;;5016920;28;20290;-69
2022/01/29 00:56:35;;;;;;;2.28;2.17;;;21.40;43.30;;;;;;5034212;28;20242;-69
2022/01/29 00:59:01;;;;;;;2.90;2.45;;;21.40;43.30;;;;;;5017346;28;20188;-68
2022/01/29 01:01:26;;;;;;;2.13;1.92;;;21.40;43.30;;;;;;5016939;28;20563;-69
2022/01/29 01:03:53;;;;;;;2.28;2.10;;;21.40;43.30;;;;;;5000633;28;20193;-68
2022/01/29 01:06:18;;;;;;;2.38;2.25;;;21.40;43.30;;;;;;5016890;28;20246;-69
2022/01/29 01:08:44;;;;;;;2.45;2.25;;;21.40;43.30;;;;;;5016966;28;20226;-69
2022/01/29 01:11:10;;;;;;;2.38;2.20;;;21.40;43.30;;;;;;5016441;28;20206;-67
2022/01/29 01:13:36;;;;;;;2.40;2.20;;;21.40;43.30;;;;;;5016915;28;20237;-69
2022/01/29 01:16:03;;;;;;;2.00;1.88;;;21.40;43.90;;;;;;5016487;28;20219;-69
2022/01/29 01:18:29;;;;;;;2.50;2.30;;;21.40;43.30;;;;;;5034352;28;20266;-69
2022/01/29 01:20:55;;;;;;;2.42;2.22;;;21.30;43.20;;;;;;5016663;28;20191;-69
2022/01/29 01:23:22;;;;;;;2.45;2.25;;;21.30;43.20;;;;;;5016632;28;20175;-69
2022/01/29 01:25:48;;;;;;;2.30;2.10;;;21.40;43.30;;;;;;5016472;28;20229;-69
2022/01/29 01:28:15;;;;;;;2.92;2.10;;;21.40;43.30;;;;;;5034117;28;20183;-68
2022/01/29 01:30:41;;;;;;;2.75;2.55;;;21.40;43.30;;;;;;5016639;28;20187;-68
2022/01/29 01:33:07;;;;;;;2.30;2.10;;;21.40;43.20;;;;;;4999962;28;20635;-69
2022/01/29 01:35:47;;;;;;;2.35;2.20;;;21.30;43.20;;;;;;5033551;28;20203;-69
2022/01/29 01:40:45;;;;;;;2.65;2.40;;;21.30;43.80;;;;;;5032701;28;20206;-69
2022/01/29 01:43:11;;;;;;;2.15;1.98;;;21.40;43.30;;;;;;5016081;28;20225;-69
2022/01/29 01:45:37;;;;;;;2.40;2.10;;;21.30;43.20;;;;;;5015917;28;20218;-69
2022/01/29 01:48:06;;;;;;;2.05;1.95;;;21.40;43.20;;;;;;4999666;28;20183;-69
2022/01/29 01:50:34;;;;;;;2.38;2.17;;;21.30;43.20;;;;;;4999632;28;20187;-69
2022/01/29 01:53:00;;;;;;;2.47;2.28;;;21.30;43.20;;;;;;4999628;28;20226;-69
2022/01/29 01:55:26;;;;;;;1.88;1.77;;;21.30;43.20;;;;;;4999237;28;20218;-68
2022/01/29 01:57:52;;;;;;;2.35;2.15;;;21.30;43.20;;;;;;5032386;28;20262;-68
2022/01/29 02:00:19;;;;;;;1.75;1.65;;;21.30;43.20;;;;;;5015277;28;20266;-68
2022/01/29 02:02:45;;;;;;;2.22;2.00;;;21.30;43.20;;;;;;5016177;28;20184;-69
2022/01/29 02:05:12;;;;;;;2.17;1.98;;;21.40;43.20;;;;;;4999370;28;20180;-69
2022/01/29 02:07:37;;;;;;;2.42;2.15;;;21.30;43.20;;;;;;5015622;28;20203;-69
2022/01/29 02:10:09;;;;;;;2.13;1.90;;;21.30;43.20;;;;;;4999267;28;20206;-69
2022/01/29 02:12:54;;;;;;;2.72;2.20;;;21.30;43.20;;;;;;5033136;28;20195;-68
2022/01/29 02:15:22;;;;;;;2.40;2.10;;;21.30;43.10;;;;;;5020392;28;20155;-70
2022/01/29 02:17:48;;;;;;;2.95;2.30;;;21.30;43.20;;;;;;5015695;28;20211;-69
2022/01/29 02:20:17;;;;;;;2.75;2.47;;;21.30;43.20;;;;;;5015792;28;20171;-69
2022/01/29 02:22:45;;;;;;;2.40;2.20;;;21.30;43.20;;;;;;5031546;28;20176;-69
2022/01/29 02:25:30;;;;;;;2.20;2.00;;;21.30;43.20;;;;;;5015494;28;20183;-69
2022/01/29 02:28:00;;;;;;;1.90;1.80;;;21.30;43.20;;;;;;5015219;28;20198;-68
2022/01/29 02:30:29;;;;;;;2.25;1.98;;;21.30;43.20;;;;;;4999134;28;20258;-68
2022/01/29 02:32:56;;;;;;;2.50;2.30;;;21.30;43.20;;;;;;5015234;28;20179;-68
2022/01/29 02:35:22;;;;;;;1.85;1.75;;;21.30;43.20;;;;;;4998724;28;20187;-68
2022/01/29 02:37:51;;;;;;;4.13;2.15;;;21.30;43.20;;;;;;5031873;28;20741;-68
2022/01/29 02:40:19;;;;;;;1.90;1.80;;;21.30;43.10;;;;;;4998919;28;20194;-69
2022/01/29 02:42:45;;;;;;;2.22;1.95;;;21.30;43.20;;;;;;4998809;28;20180;-69
2022/01/29 02:45:11;;;;;;;2.53;2.33;;;21.30;43.10;;;;;;5031378;28;20179;-69
2022/01/29 02:47:37;;;;;;;2.42;2.22;;;21.30;43.20;;;;;;4998721;28;20237;-68
2022/01/29 02:50:03;;;;;;;2.35;2.15;;;21.30;43.10;;;;;;5031448;28;20187;-68
2022/01/29 02:52:29;;;;;;;2.60;2.10;;;21.30;43.20;;;;;;5032624;28;20310;-69
2022/01/29 02:54:55;;;;;;;2.40;2.20;;;21.30;43.20;;;;;;5014623;28;20212;-69
2022/01/29 02:57:21;;;;;;;2.28;2.08;;;21.30;43.20;;;;;;5014757;28;20255;-69
2022/01/29 02:59:46;;;;;;;2.20;2.00;;;21.30;43.20;;;;;;5031488;28;20203;-68
2022/01/29 03:02:12;;;;;;;2.63;2.10;;;21.30;43.20;;;;;;4998399;28;20213;-69
2022/01/29 03:04:38;;;;;;;2.30;2.10;;;21.30;43.10;;;;;;5014955;28;20188;-69
2022/01/29 03:07:03;;;;;;;2.50;2.28;;;21.30;43.20;;;;;;4998201;28;20257;-69
2022/01/29 03:09:29;;;;;;;2.28;2.10;;;21.30;43.10;;;;;;5012580;28;20186;-69
2022/01/29 03:11:56;;;;;;;2.13;1.95;;;21.30;43.10;;;;;;5030479;28;20629;-68
2022/01/29 03:14:22;;;;;;;1.90;1.80;;;21.30;43.20;;;;;;5014002;28;20186;-69
2022/01/29 03:16:48;;;;;;;1.90;1.80;;;21.30;43.10;;;;;;5011870;28;20211;-69
2022/01/29 03:19:13;;;;;;;2.13;1.85;;;21.30;43.10;;;;;;5014327;28;20194;-68
2022/01/29 03:21:39;;;;;;;1.77;1.67;;;21.30;43.20;;;;;;5014565;28;20233;-69
2022/01/29 03:24:05;;;;;;;2.03;1.83;;;21.30;43.10;;;;;;5031033;28;20190;-69
2022/01/29 03:26:31;;;;;;;1.90;1.73;;;21.30;43.10;;;;;;4998104;28;20210;-69
2022/01/29 03:28:57;;;;;;;2.45;1.92;;;21.30;43.10;;;;;;5014814;28;20179;-69
2022/01/29 03:31:26;;;;;;;3.38;1.85;;;21.30;43.10;;;;;;4999953;28;20238;-69
2022/01/29 03:33:53;;;;;;;1.80;1.70;;;21.30;43.10;;;;;;5014446;28;20195;-68
2022/01/29 03:36:19;;;;;;;1.85;1.60;;;21.30;43.10;;;;;;5014080;28;20258;-68
2022/01/29 03:38:45;;;;;;;1.83;1.73;;;21.30;43.10;;;;;;4998116;28;20187;-69
2022/01/29 03:41:13;;;;;;;1.75;1.60;;;21.30;43.10;;;;;;5014498;28;20560;-69
2022/01/29 03:43:45;;;;;;;2.20;2.00;;;21.30;43.10;;;;;;5014768;28;20274;-69
2022/01/29 03:46:12;;;;;;;1.80;1.70;;;21.30;43.10;;;;;;4997930;28;20222;-69
2022/01/29 03:48:38;;;;;;;1.85;1.70;;;21.30;43.10;;;;;;4998000;28;20226;-69
2022/01/29 03:51:04;;;;;;;1.90;1.80;;;21.30;43.70;;;;;;5014200;28;20274;-69
2022/01/29 03:53:30;;;;;;;2.00;1.90;;;21.30;43.10;;;;;;4997969;28;20278;-69
2022/01/29 03:55:56;;;;;;;1.77;1.67;;;21.30;43.10;;;;;;5014044;28;20218;-69
2022/01/29 03:58:22;;;;;;;1.70;1.60;;;21.30;43.10;;;;;;5014296;28;20257;-69
2022/01/29 04:00:47;;;;;;;1.90;1.80;;;21.30;43.10;;;;;;5014295;28;20568;-69
2022/01/29 04:03:13;;;;;;;2.10;1.90;;;21.30;43.10;;;;;;5014588;28;20191;-69
2022/01/29 04:05:39;;;;;;;1.75;1.65;;;21.30;43.20;;;;;;5014050;28;20194;-69
2022/01/29 04:08:13;;;;;;;2.22;1.88;;;21.30;43.10;;;;;;5030790;28;20187;-68
2022/01/29 04:10:39;;;;;;;1.50;1.40;;;21.30;43.20;;;;;;5014419;28;20215;-69
2022/01/29 04:13:06;;;;;;;2.15;1.63;;;21.30;43.10;;;;;;5014463;28;20179;-69
2022/01/29 04:15:32;;;;;;;1.63;1.52;;;21.30;43.10;;;;;;5014199;28;20218;-69
2022/01/29 04:17:57;;;;;;;1.73;1.33;;;21.30;43.10;;;;;;4997724;28;20187;-68
2022/01/29 04:20:23;;;;;;;1.60;1.50;;;21.30;43.10;;;;;;5014151;28;20179;-69
2022/01/29 04:22:49;;;;;;;1.48;1.38;;;21.30;43.10;;;;;;4997742;28;20183;-69
2022/01/29 04:25:15;;;;;;;1.20;1.20;;;21.30;43.10;;;;;;5034427;28;20183;-69
2022/01/29 04:27:44;;;;;;;1.75;1.65;;;21.30;43.10;;;;;;5001206;28;20207;-69
2022/01/29 04:30:18;;;;;;;1.75;1.65;;;21.30;43.10;;;;;;5001117;28;20183;-69
2022/01/29 04:32:58;;;;;;;1.63;1.52;;;21.30;43.10;;;;;;5017574;28;20175;-69
2022/01/29 04:35:23;;;;;;;1.67;1.58;;;21.30;43.10;;;;;;5000843;28;20203;-69
2022/01/29 04:37:50;;;;;;;1.60;1.50;;;21.30;43.10;;;;;;5001334;28;20234;-69
2022/01/29 04:40:16;;;;;;;1.52;1.42;;;21.20;43.00;;;;;;5000996;28;20175;-69
2022/01/29 04:42:42;;;;;;;1.45;1.35;;;21.30;43.00;;;;;;5017558;28;20215;-68
2022/01/29 04:45:08;;;;;;;1.73;1.55;;;21.30;43.10;;;;;;5000899;28;20235;-69
2022/01/29 04:47:34;;;;;;;1.60;1.50;;;21.30;43.10;;;;;;5033567;28;20231;-68
2022/01/29 04:49:59;;;;;;;2.25;1.77;;;21.30;43.10;;;;;;5017308;28;20674;-68
2022/01/29 04:52:25;;;;;;;1.70;1.55;;;21.20;43.00;;;;;;4997732;28;20192;-69
2022/01/29 04:54:51;;;;;;;1.40;1.30;;;21.20;43.00;;;;;;4981314;28;20196;-68
2022/01/29 04:57:17;;;;;;;1.95;1.60;;;21.20;43.00;;;;;;5014750;28;20208;-69
2022/01/29 04:59:42;;;;;;;1.58;1.48;;;21.30;43.10;;;;;;4997279;28;20192;-69
2022/01/29 05:02:08;;;;;;;1.50;1.40;;;21.20;43.00;;;;;;4997429;28;20176;-68
2022/01/29 05:04:34;;;;;;;1.30;1.08;;;21.20;43.00;;;;;;4980721;28;20223;-69
2022/01/29 05:07:00;;;;;;;1.60;1.50;;;21.20;43.60;;;;;;4997279;28;20214;-69
2022/01/29 05:09:26;;;;;;;1.60;1.50;;;21.20;43.00;;;;;;5014669;28;20188;-68
2022/01/29 05:11:53;;;;;;;1.45;1.30;;;21.20;43.00;;;;;;4981295;28;20194;-69
2022/01/29 05:14:33;;;;;;;2.03;1.80;;;21.20;43.00;;;;;;5014378;28;20185;-69
2022/01/29 05:27:54;;;;;;;1.85;1.52;;;21.20;43.00;;;;;;4996832;28;20183;-69
2022/01/29 05:30:20;;;;;;;1.48;1.38;;;21.20;43.00;;;;;;5004701;28;20175;-68
2022/01/29 05:32:45;;;;;;;2.00;1.48;;;21.20;43.00;;;;;;5016675;28;20190;-69
2022/01/29 05:35:11;;;;;;;1.30;1.20;;;21.20;43.00;;;;;;5015205;28;20667;-68
2022/01/29 05:37:37;;;;;;;1.40;1.30;;;21.20;43.00;;;;;;4999713;28;20214;-68
2022/01/29 05:40:03;;;;;;;1.13;1.13;;;21.20;43.00;;;;;;5016639;28;20242;-68
2022/01/29 05:42:29;;;;;;;1.45;1.35;;;21.20;43.00;;;;;;5033772;28;20270;-69
2022/01/29 05:44:54;;;;;;;1.48;1.38;;;21.20;43.00;;;;;;5033686;28;20175;-69
2022/01/29 05:47:20;;;;;;;1.75;1.63;;;21.20;43.00;;;;;;5050521;22;20235;-69
2022/01/29 05:49:46;;;;;;;1.50;1.40;;;21.20;43.00;;;;;;5015082;28;20237;-68
2022/01/29 05:52:11;;;;;;;1.75;1.30;;;21.20;43.00;;;;;;5015564;28;20183;-68
2022/01/29 05:54:37;;;;;;;1.55;1.45;;;21.20;43.00;;;;;;5015364;28;20180;-68
2022/01/29 05:57:03;;;;;;;1.50;1.40;;;21.20;43.00;;;;;;5015277;28;20214;-68
2022/01/29 05:59:31;;;;;;;2.78;1.33;;;21.20;42.90;;;;;;4998918;28;20195;-68
2022/01/29 06:01:56;;;;;;;1.10;1.00;;;21.20;42.90;;;;;;5031909;28;20201;-68
2022/01/29 06:04:22;;;;;;;1.60;1.50;;;21.20;42.90;;;;;;5015170;28;20206;-68
2022/01/29 06:06:48;;;;;;;1.13;1.13;;;21.20;42.90;;;;;;5011946;28;20252;-68
2022/01/29 06:09:13;;;;;;;1.73;1.60;;;21.20;42.90;;;;;;4998959;28;20187;-68
2022/01/29 06:11:39;;;;;;;1.35;1.25;;;21.20;43.10;;;;;;5015272;28;20225;-68
2022/01/29 06:14:05;;;;;;;1.63;1.52;;;21.20;43.00;;;;;;5032979;28;20190;-68
2022/01/29 06:16:31;;;;;;;1.40;1.30;;;21.20;42.90;;;;;;5032291;28;20215;-68
2022/01/29 06:18:56;;;;;;;1.67;1.50;;;21.20;42.90;;;;;;5015026;28;20268;-68
2022/01/29 06:21:22;;;;;;;1.50;1.40;;;21.20;42.90;;;;;;4995252;28;20654;-68
2022/01/29 06:23:48;;;;;;;2.35;1.35;;;21.20;43.00;;;;;;5014744;28;20191;-68
2022/01/29 06:26:14;;;;;;;1.38;1.27;;;21.20;42.90;;;;;;5014483;28;20234;-68
2022/01/29 06:28:41;;;;;;;1.58;1.48;;;21.20;42.90;;;;;;4998654;28;20183;-68
2022/01/29 06:31:09;;;;;;;1.50;1.40;;;21.20;42.90;;;;;;4998464;28;20598;-68
2022/01/29 06:33:35;;;;;;;1.42;1.33;;;21.20;42.90;;;;;;5015237;28;20187;-67
2022/01/29 06:36:02;;;;;;;2.53;1.60;;;21.20;42.90;;;;;;5031159;28;20218;-67
2022/01/29 06:38:28;;;;;;;1.40;1.30;;;21.20;42.90;;;;;;5031531;28;20225;-67
2022/01/29 06:40:54;;;;;;;1.45;1.35;;;21.20;42.90;;;;;;4998889;28;20191;-68
2022/01/29 06:43:19;;;;;;;1.52;1.42;;;21.20;42.90;;;;;;5048440;28;20206;-68
2022/01/29 06:45:47;;;;;;;1.60;1.50;;;21.20;42.90;;;;;;5014756;28;20288;-67
2022/01/29 06:48:14;;;;;;;2.08;1.70;;;21.20;42.90;;;;;;5031366;28;20215;-67
2022/01/29 06:50:41;;;;;;;1.77;1.35;;;21.20;42.90;;;;;;5031704;28;20184;-68
2022/01/29 06:53:07;;;;;;;1.70;1.60;;;21.20;42.90;;;;;;5031409;28;20187;-68
2022/01/29 06:55:33;;;;;;;2.55;1.77;;;21.20;42.90;;;;;;5031397;28;20234;-68
2022/01/29 06:57:59;;;;;;;1.63;1.52;;;21.20;42.90;;;;;;5047821;28;20233;-68
2022/01/29 07:00:25;;;;;;;1.67;1.58;;;21.20;42.90;;;;;;5032527;28;20207;-68
2022/01/29 07:02:51;;;;;;;1.60;1.50;;;21.20;42.80;;;;;;5047799;28;20215;-67
2022/01/29 07:05:17;;;;;;;1.77;1.65;;;21.20;42.80;;;;;;5030702;28;20274;-68
2022/01/29 07:07:43;;;;;;;1.90;1.42;;;21.20;42.90;;;;;;5014498;28;20207;-68
2022/01/29 07:10:09;;;;;;;1.60;1.50;;;21.20;42.80;;;;;;5016125;28;20191;-67
2022/01/29 07:12:40;;;;;;;1.50;1.40;;;21.20;42.90;;;;;;5014585;28;20207;-67
2022/01/29 07:15:09;;;;;;;1.42;1.23;;;21.20;42.90;;;;;;5032340;28;20213;-67
2022/01/29 07:17:35;;;;;;;1.98;1.67;;;21.20;42.90;;;;;;5017860;28;20303;-68
2022/01/29 07:20:02;;;;;;;1.58;1.48;;;21.20;42.90;;;;;;5000796;28;20210;-68
2022/01/29 07:22:28;;;;;;;1.70;1.40;;;21.20;42.80;;;;;;5014595;28;20277;-68
2022/01/29 07:24:54;;;;;;;1.35;1.20;;;21.20;42.80;;;;;;5014382;28;20279;-68
2022/01/29 07:27:19;;;;;;;1.60;1.50;;;21.20;42.80;;;;;;5014489;28;20218;-68
2022/01/29 07:29:45;;;;;;;1.58;1.40;;;21.20;42.80;;;;;;5014539;28;20190;-68
2022/01/29 07:32:12;;;;;;;1.42;1.33;;;21.20;42.80;;;;;;5014888;28;20273;-67
2022/01/29 07:34:38;;;;;;;1.52;1.20;;;21.20;42.80;;;;;;5014599;28;20179;-68
2022/01/29 07:37:05;;;;;;;1.40;1.30;;;21.20;42.70;;;;;;4998308;28;20277;-68
2022/01/29 07:39:31;;;;;;;2.25;1.27;;;21.20;42.80;;;;;;5032208;28;20207;-68
2022/01/29 07:41:58;;;;;;;1.40;1.25;;;21.20;42.80;;;;;;5014783;28;20222;-68
2022/01/29 07:44:24;;;;;;;1.30;1.20;;;21.20;42.60;;;;;;5014440;28;20207;-67
2022/01/29 07:46:51;;;;;;;1.20;1.20;;;21.20;42.60;;;;;;5014533;28;20309;-68
2022/01/29 07:49:17;;;;;;;1.65;1.35;;;21.20;42.60;;;;;;5014308;28;20237;-67
2022/01/29 07:51:42;;;;;;;1.75;1.50;;;21.20;42.70;;;;;;5014585;28;20191;-67
2022/01/29 07:54:09;;;;;;;1.40;1.30;;;21.20;42.60;;;;;;5014376;28;20202;-67
2022/01/29 07:56:35;;;;;;;1.40;1.30;;;21.20;42.80;;;;;;5031684;28;20238;-67
2022/01/29 07:59:02;;;;;;;1.38;1.27;;;21.20;42.80;;;;;;5015565;28;20211;-67
2022/01/29 08:01:28;;;;;;;1.88;1.10;;;21.20;42.70;;;;;;5018391;28;20191;-67
2022/01/29 08:03:54;;;;;;;1.20;1.10;;;21.20;42.60;;;;;;5017934;28;20183;-67
2022/01/29 08:06:22;;;;;;;1.58;1.40;;;21.20;42.60;;;;;;5017975;28;20203;-67
2022/01/29 08:08:50;;;;;;;1.42;1.30;;;21.20;42.70;;;;;;5034199;28;20195;-68
2022/01/29 08:11:17;;;;;;;1.63;1.30;;;21.20;42.60;;;;;;5017760;28;20669;-68
2022/01/29 08:13:43;;;;;;;1.20;1.10;;;21.20;42.60;;;;;;5017753;28;20274;-68
2022/01/29 08:16:09;;;;;;;1.30;1.20;;;21.20;42.60;;;;;;5035039;28;20222;-68
2022/01/29 08:18:35;;;;;;;1.40;1.30;;;21.20;42.60;;;;;;5001692;28;20191;-68
2022/01/29 08:21:02;;;;;;;1.55;1.30;;;21.20;42.60;;;;;;5035368;28;20194;-68
2022/01/29 08:23:27;;;;;;;1.40;1.27;;;21.20;42.60;;;;;;5035288;28;20183;-68
2022/01/29 08:25:53;;;;;;;1.10;1.10;;;21.20;42.60;;;;;;5017344;28;20238;-68
2022/01/29 08:28:20;;;;;;;1.33;1.23;;;21.20;42.60;;;;;;5017756;28;20186;-68
2022/01/29 08:30:45;;;;;;;1.15;1.10;;;21.20;42.60;;;;;;5017714;28;20187;-68
2022/01/29 08:33:17;;;;;;;1.38;1.20;;;21.20;42.60;;;;;;5017479;28;20548;-69
2022/01/29 08:35:43;;;;;;;1.27;1.17;;;21.20;42.60;;;;;;5035125;28;20207;-68
2022/01/29 08:38:09;;;;;;;1.42;1.23;;;21.20;42.60;;;;;;5017233;28;20199;-68
2022/01/29 08:40:35;;;;;;;2.13;1.38;;;21.20;42.60;;;;;;5001363;28;20190;-69
2022/01/29 08:43:01;;;;;;;1.42;1.33;;;21.20;42.60;;;;;;5034952;28;20180;-68
2022/01/29 08:45:26;;;;;;;1.58;1.30;;;21.20;42.60;;;;;;5001067;28;20187;-68
2022/01/29 08:47:53;;;;;;;1.60;1.20;;;21.20;42.60;;;;;;5000692;28;20253;-68
2022/01/29 08:50:19;;;;;;;1.33;1.10;;;21.20;42.60;;;;;;5017111;28;20686;-68
2022/01/29 08:52:45;;;;;;;1.55;1.45;;;21.20;42.60;;;;;;5033894;28;20223;-68
2022/01/29 08:55:11;;;;;;;1.50;1.40;;;21.20;42.70;;;;;;5016823;28;20236;-68
2022/01/29 08:57:38;;;;;;;1.58;1.45;;;21.20;42.80;;;;;;5017025;28;20219;-68
2022/01/29 09:00:08;;;;;;;1.65;1.30;;;21.20;42.60;;;;;;5016940;28;20191;-68
2022/01/29 09:02:34;;;;;;;1.42;1.15;;;21.20;42.60;;;;;;5033603;28;20183;-68
2022/01/29 09:05:00;;;;;;;1.25;1.17;;;21.20;42.60;;;;;;5033434;28;20325;-68
2022/01/29 09:07:27;;;;;;;1.40;1.30;;;21.20;42.60;;;;;;5016730;28;20211;-68
2022/01/29 09:09:55;;;;;;;1.40;1.23;;;21.20;42.60;;;;;;5016737;28;20194;-68
2022/01/29 09:12:21;;;;;;;1.63;1.52;;;21.20;42.60;;;;;;5017025;28;20183;-68
2022/01/29 09:14:48;;;;;;;1.60;1.50;;;21.20;42.60;;;;;;5016439;28;20194;-68
2022/01/29 09:17:14;;;;;;;1.38;1.27;;;21.20;42.60;;;;;;5016466;28;20265;-68
2022/01/29 09:19:40;;;;;;;1.55;1.45;;;21.20;42.60;;;;;;5012119;28;20190;-68
2022/01/29 09:22:06;;;;;;;1.15;1.13;;;21.30;42.60;;;;;;5053150;28;20226;-68
2022/01/29 09:24:31;;;;;;;1.42;1.33;;;21.20;42.60;;;;;;5036078;28;20186;-68
2022/01/29 09:26:58;;;;;;;1.38;1.27;;;21.20;42.60;;;;;;5036160;28;20213;-68
2022/01/29 09:29:24;;;;;;;1.60;1.20;;;21.20;42.60;;;;;;5036321;28;20265;-68
2022/01/29 09:31:50;;;;;;;1.20;1.10;;;21.20;42.60;;;;;;5019398;28;20290;-68
2022/01/29 09:34:16;;;;;;;1.20;1.10;;;21.20;42.60;;;;;;5019835;28;20206;-69
2022/01/29 09:36:41;;;;;;;1.58;1.10;;;21.20;42.60;;;;;;5032707;28;20215;-69
2022/01/29 09:39:07;;;;;;;1.45;0.93;;;21.20;42.60;;;;;;5032589;28;20183;-69
2022/01/29 09:41:37;;;;;;;1.17;1.00;;;21.20;42.60;;;;;;5049285;28;20222;-68
2022/01/29 09:44:03;;;;;;;1.33;1.20;;;21.30;42.70;;;;;;5015914;28;20187;-68
2022/01/29 09:46:30;;;;;;;1.30;1.20;;;21.20;42.60;;;;;;5015373;28;20211;-69
2022/01/29 09:48:59;;;;;;;1.55;1.40;;;21.30;42.70;;;;;;5038287;28;20272;-68
2022/01/29 09:51:27;;;;;;;1.45;1.25;;;21.30;42.70;;;;;;5016129;28;20187;-68
2022/01/29 09:53:52;;;;;;;2.75;1.40;;;21.30;42.60;;;;;;5049040;28;20198;-68
2022/01/29 09:56:19;;;;;;;2.30;1.27;;;21.30;42.70;;;;;;5033116;28;20211;-68
2022/01/29 09:58:44;;;;;;;1.92;1.23;;;21.30;42.60;;;;;;5049256;28;20650;-68
2022/01/29 10:01:11;;;;;;;1.10;0.95;;;21.30;43.00;;;;;;5032225;28;20233;-68
2022/01/29 10:03:37;;;;;;;1.30;1.20;;;21.30;42.60;;;;;;5031969;28;20190;-68
2022/01/29 10:06:03;;;;;;;1.58;1.23;;;21.30;42.70;;;;;;5031833;28;20198;-68
2022/01/29 10:08:42;;;;;;;1.08;0.98;;;21.30;42.60;;;;;;5037868;28;20619;-68
2022/01/29 10:11:21;;;;;;;1.73;1.33;;;21.30;42.70;;;;;;5032648;28;20175;-68
2022/01/29 10:13:48;;;;;;;1.30;1.20;;;21.30;42.60;;;;;;4998257;28;20176;-68
2022/01/29 10:16:25;;;;;;;1.80;1.70;;;21.30;42.60;;;;;;5015168;28;20226;-67
2022/01/29 10:19:12;;;;;;;2.60;1.80;;;21.30;42.70;;;;;;5015543;28;20179;-68
2022/01/29 10:21:46;;;;;;;1.40;1.30;;;21.30;42.60;;;;;;5015423;28;20616;-68
2022/01/29 10:24:18;;;;;;;1.27;1.17;;;21.30;42.70;;;;;;5015440;28;20360;-68
2022/01/29 10:26:49;;;;;;;1.40;1.30;;;21.30;42.60;;;;;;5031687;28;20234;-68
2022/01/29 10:29:27;;;;;;;2.45;1.42;;;21.40;42.70;;;;;;5033014;28;20218;-68
2022/01/29 10:31:56;;;;;;;1.80;1.38;;;21.40;42.80;;;;;;5031687;28;20191;-68
2022/01/29 10:34:29;;;;;;;1.95;1.48;;;21.40;42.80;;;;;;5027092;28;20234;-69
2022/01/29 10:37:25;;;;;;;1.58;1.48;;;21.40;42.80;;;;;;5014478;28;20219;-69
2022/01/29 10:39:56;;;;;;;2.75;1.77;;;21.40;42.80;;;;;;4998422;28;20196;-68
2022/01/29 10:42:35;;;;;;;2.45;2.00;;;21.40;42.70;;;;;;5004013;28;20227;-68
2022/01/29 10:45:07;;;;;;;2.58;1.70;;;21.40;42.70;;;;;;5028658;28;20230;-68
2022/01/29 10:47:57;;;;;;;1.58;1.40;;;21.40;42.70;;;;;;4997734;28;20219;-69
2022/01/29 10:50:23;;;;;;;1.70;1.42;;;21.40;42.80;;;;;;5006825;28;20187;-68
2022/01/29 10:52:49;;;;;;;1.52;1.42;;;21.40;42.70;;;;;;5014754;28;20218;-67
2022/01/29 10:55:16;;;;;;;1.50;1.40;;;21.40;42.70;;;;;;5030785;28;20194;-68
2022/01/29 10:57:47;;;;;;;1.63;1.52;;;21.40;42.70;;;;;;5031774;28;20229;-68
2022/01/29 11:00:26;;;;;;;2.03;1.50;;;21.40;42.80;;;;;;5030308;28;20190;-68
2022/01/29 11:02:54;;;;;;;1.92;1.58;;;21.40;42.70;;;;;;5006247;28;20190;-68
2022/01/29 11:05:28;;;;;;;1.80;1.40;;;21.40;42.70;;;;;;5014900;28;20241;-68
2022/01/29 11:07:56;;;;;;;1.80;1.40;;;21.40;42.70;;;;;;5014745;28;20205;-68
2022/01/29 11:10:26;;;;;;;1.77;1.60;;;21.40;42.70;;;;;;5014668;28;20705;-68
2022/01/29 11:12:51;;;;;;;2.67;1.50;;;21.40;42.70;;;;;;4998691;28;20213;-68
2022/01/29 11:15:22;;;;;;;1.75;1.65;;;21.40;42.80;;;;;;5014551;28;20180;-68
2022/01/29 11:17:49;;;;;;;2.00;1.42;;;21.40;42.80;;;;;;5027368;28;20261;-68
2022/01/29 11:20:17;;;;;;;1.27;1.10;;;21.40;42.80;;;;;;4997650;28;20187;-68
2022/01/29 11:22:50;;;;;;;1.45;1.20;;;21.40;42.70;;;;;;4998657;28;20215;-68
2022/01/29 11:25:23;;;;;;;1.40;1.30;;;21.40;42.70;;;;;;5014152;28;20187;-68
2022/01/29 11:28:19;;;;;;;1.33;1.23;;;21.40;42.80;;;;;;5030700;28;20226;-68
2022/01/29 11:31:15;;;;;;;1.65;1.55;;;21.40;42.80;;;;;;5013363;28;20183;-68
2022/01/29 11:33:59;;;;;;;1.52;1.17;;;21.40;42.70;;;;;;5023124;28;20242;-69
2022/01/29 11:36:46;;;;;;;1.92;1.35;;;21.40;42.80;;;;;;5033711;28;20261;-68
2022/01/29 11:39:25;;;;;;;4.15;1.30;;;21.40;42.70;;;;;;5034310;28;20199;-68
2022/01/29 11:42:13;;;;;;;1.30;1.20;;;21.40;42.70;;;;;;5029839;28;20198;-68
2022/01/29 11:44:45;;;;;;;1.05;1.02;;;21.40;42.80;;;;;;5034060;28;20198;-68
2022/01/29 11:47:42;;;;;;;2.08;1.20;;;21.50;42.80;;;;;;5069319;22;20221;-69
2022/01/29 11:50:26;;;;;;;1.30;1.20;;;21.40;42.80;;;;;;5036498;28;20198;-69
2022/01/29 11:53:02;;;;;;;1.50;1.20;;;21.50;42.80;;;;;;5040399;28;20201;-68
2022/01/29 11:55:48;;;;;;;1.38;1.27;;;21.40;42.70;;;;;;5057139;28;20186;-68
2022/01/29 11:58:16;;;;;;;1.30;0.98;;;21.50;42.80;;;;;;5053903;28;20572;-69
2022/01/29 12:01:00;;;;;;;2.35;1.40;;;21.50;42.80;;;;;;5036982;28;20197;-68
2022/01/29 12:03:36;;;;;;;2.17;1.30;;;21.40;42.80;;;;;;5054339;28;20240;-68
2022/01/29 12:06:26;;;;;;;1.30;1.10;;;21.50;42.90;;;;;;5054251;28;20218;-68
2022/01/29 12:09:04;;;;;;;1.15;1.05;;;21.50;43.00;;;;;;5054474;28;20179;-68
2022/01/29 12:11:32;;;;;;;1.55;0.98;;;21.40;42.90;;;;;;5037718;28;20193;-68
2022/01/29 12:14:13;;;;;;;1.10;1.00;;;21.40;43.00;;;;;;5021371;28;20273;-67
2022/01/29 12:16:58;;;;;;;1.27;0.98;;;21.40;43.00;;;;;;5037331;28;20225;-68
2022/01/29 12:19:45;;;;;;;1.23;1.13;;;21.40;43.00;;;;;;5037948;28;20282;-68
2022/01/29 12:22:23;;;;;;;1.38;0.95;;;21.40;43.00;;;;;;5054253;28;20218;-68
2022/01/29 12:25:02;;;;;;;0.80;0.80;;;21.40;43.10;;;;;;5037406;28;20206;-68
2022/01/29 12:27:53;;;;;;;1.38;1.05;;;21.40;43.10;;;;;;5055295;28;20260;-68
2022/01/29 12:30:33;;;;;;;1.45;1.02;;;21.40;43.10;;;;;;5055248;28;20254;-68
2022/01/29 12:33:00;;;;;;;1.15;1.05;;;21.40;43.10;;;;;;5054013;28;20178;-68
2022/01/29 12:35:54;;;;;;;2.38;1.05;;;21.50;43.20;;;;;;5053723;28;20195;-68
2022/01/29 12:38:41;;;;;;;1.40;1.15;;;21.40;43.10;;;;;;5040194;28;20278;-68
2022/01/29 12:41:13;;;;;;;1.13;1.00;;;21.40;43.20;;;;;;5036064;28;20175;-67
2022/01/29 12:44:01;;;;;;;1.38;1.15;;;21.50;43.20;;;;;;5054130;28;20175;-68
2022/01/29 12:46:30;;;;;;;1.20;1.10;;;21.50;43.20;;;;;;5052148;28;20175;-68
2022/01/29 12:49:07;;;;;;;2.15;1.00;;;21.40;43.20;;;;;;5035926;28;20253;-68
2022/01/29 12:51:35;;;;;;;1.98;1.20;;;21.50;43.20;;;;;;5036057;28;20178;-68
2022/01/29 12:54:05;;;;;;;1.65;0.90;;;21.50;43.20;;;;;;5036207;28;20228;-68
2022/01/29 12:56:34;;;;;;;2.25;1.02;;;21.50;43.30;;;;;;5035974;28;20221;-68
2022/01/29 12:59:03;;;;;;;1.73;1.10;;;21.40;43.20;;;;;;5036006;28;20171;-68
2022/01/29 13:01:29;;;;;;;1.00;1.00;;;21.40;43.20;;;;;;5036297;28;20605;-68
2022/01/29 13:04:12;;;;;;;1.25;0.98;;;21.50;43.30;;;;;;5036163;28;20191;-68
2022/01/29 13:06:38;;;;;;;1.20;1.10;;;21.40;43.20;;;;;;5035712;28;20212;-67
2022/01/29 13:09:20;;;;;;;1.20;1.10;;;21.40;43.30;;;;;;5036422;28;20277;-66